sensor_id;sensor_type;location;lat;lon;timestamp;P1;durP1;ratioP1;P2;durP2;ratioP2
8458;SDS011;4266;48.816;9.154;2023-08-08T00:00:15;5.13;;;2.77;;
8458;SDS011;4266;48.816;9.154;2023-08-08T00:02:42;2.83;;;2.63;;
8458;SDS011;4266;48.816;9.154;2023-08-08T00:05:08;3.20;;;3.00;;
8458;SDS011;4266;48.816;9.154;2023-08-08T00:07:33;3.83;;;2.73;;
8458;SDS011;4266;48.816;9.154;2023-08-08T00:10:00;5.03;;;2.90;;
8458;SDS011;4266;48.816;9.154;2023-08-08T00:12:25;4.30;;;2.90;;
8458;SDS011;4266;48.816;9.154;2023-08-08T00:14:51;3.00;;;2.60;;
8458;SDS011;4266;48.816;9.154;2023-08-08T00:17:18;3.80;;;2.50;;
8458;SDS011;4266;48.816;9.154;2023-08-08T00:19:44;2.97;;;2.47;;
8458;SDS011;4266;48.816;9.154;2023-08-08T00:22:10;2.80;;;2.50;;
8458;SDS011;4266;48.816;9.154;2023-08-08T00:24:35;3.80;;;3.00;;
8458;SDS011;4266;48.816;9.154;2023-08-08T00:27:01;3.27;;;2.93;;
8458;SDS011;4266;48.816;9.154;2023-08-08T00:29:27;2.77;;;2.57;;
8458;SDS011;4266;48.816;9.154;2023-08-08T00:31:53;3.13;;;2.83;;
8458;SDS011;4266;48.816;9.154;2023-08-08T00:34:19;4.37;;;2.93;;
8458;SDS011;4266;48.816;9.154;2023-08-08T00:36:45;4.67;;;2.87;;
8458;SDS011;4266;48.816;9.154;2023-08-08T00:39:11;3.40;;;2.50;;
8458;SDS011;4266;48.816;9.154;2023-08-08T00:41:37;4.97;;;2.90;;
8458;SDS011;4266;48.816;9.154;2023-08-08T00:44:03;2.80;;;2.60;;
8458;SDS011;4266;48.816;9.154;2023-08-08T00:46:29;2.77;;;2.57;;
8458;SDS011;4266;48.816;9.154;2023-08-08T00:48:54;2.83;;;2.73;;
8458;SDS011;4266;48.816;9.154;2023-08-08T00:51:20;2.83;;;2.67;;
8458;SDS011;4266;48.816;9.154;2023-08-08T00:53:46;4.10;;;2.33;;
8458;SDS011;4266;48.816;9.154;2023-08-08T00:56:13;3.17;;;2.83;;
8458;SDS011;4266;48.816;9.154;2023-08-08T00:58:38;2.73;;;2.63;;
8458;SDS011;4266;48.816;9.154;2023-08-08T01:01:04;3.53;;;2.93;;
8458;SDS011;4266;48.816;9.154;2023-08-08T01:03:29;3.77;;;2.63;;
8458;SDS011;4266;48.816;9.154;2023-08-08T01:06:13;3.13;;;2.93;;
8458;SDS011;4266;48.816;9.154;2023-08-08T01:08:58;3.40;;;2.70;;
8458;SDS011;4266;48.816;9.154;2023-08-08T01:11:21;2.83;;;2.60;;
8458;SDS011;4266;48.816;9.154;2023-08-08T01:13:47;3.00;;;2.80;;
8458;SDS011;4266;48.816;9.154;2023-08-08T01:16:12;3.57;;;3.13;;
8458;SDS011;4266;48.816;9.154;2023-08-08T01:18:38;3.50;;;3.20;;
8458;SDS011;4266;48.816;9.154;2023-08-08T01:21:04;3.63;;;3.17;;
8458;SDS011;4266;48.816;9.154;2023-08-08T01:23:40;3.00;;;2.80;;
8458;SDS011;4266;48.816;9.154;2023-08-08T01:26:00;2.73;;;2.53;;
8458;SDS011;4266;48.816;9.154;2023-08-08T01:28:26;4.83;;;2.47;;
8458;SDS011;4266;48.816;9.154;2023-08-08T01:30:53;4.67;;;2.30;;
8458;SDS011;4266;48.816;9.154;2023-08-08T01:33:19;2.97;;;2.77;;
8458;SDS011;4266;48.816;9.154;2023-08-08T01:35:46;4.27;;;2.60;;
8458;SDS011;4266;48.816;9.154;2023-08-08T01:38:23;2.93;;;2.70;;
8458;SDS011;4266;48.816;9.154;2023-08-08T01:40:50;2.63;;;2.40;;
8458;SDS011;4266;48.816;9.154;2023-08-08T01:43:15;5.03;;;2.80;;
8458;SDS011;4266;48.816;9.154;2023-08-08T01:45:42;3.57;;;2.67;;
8458;SDS011;4266;48.816;9.154;2023-08-08T01:48:08;3.87;;;2.73;;
8458;SDS011;4266;48.816;9.154;2023-08-08T01:50:34;2.63;;;2.40;;
8458;SDS011;4266;48.816;9.154;2023-08-08T01:53:00;3.10;;;2.80;;
8458;SDS011;4266;48.816;9.154;2023-08-08T01:55:26;3.37;;;2.53;;
8458;SDS011;4266;48.816;9.154;2023-08-08T01:57:51;3.63;;;2.43;;
8458;SDS011;4266;48.816;9.154;2023-08-08T02:00:17;2.93;;;2.60;;
8458;SDS011;4266;48.816;9.154;2023-08-08T02:02:43;2.83;;;2.63;;
8458;SDS011;4266;48.816;9.154;2023-08-08T02:05:08;2.63;;;2.43;;
8458;SDS011;4266;48.816;9.154;2023-08-08T02:07:35;2.97;;;2.67;;
8458;SDS011;4266;48.816;9.154;2023-08-08T02:10:01;2.80;;;2.60;;
8458;SDS011;4266;48.816;9.154;2023-08-08T02:12:27;3.30;;;2.57;;
8458;SDS011;4266;48.816;9.154;2023-08-08T02:14:53;3.70;;;2.57;;
8458;SDS011;4266;48.816;9.154;2023-08-08T02:17:18;5.03;;;2.60;;
8458;SDS011;4266;48.816;9.154;2023-08-08T02:19:44;3.03;;;2.67;;
8458;SDS011;4266;48.816;9.154;2023-08-08T02:22:10;3.00;;;2.50;;
8458;SDS011;4266;48.816;9.154;2023-08-08T02:24:35;3.13;;;2.80;;
8458;SDS011;4266;48.816;9.154;2023-08-08T02:27:01;4.53;;;2.47;;
8458;SDS011;4266;48.816;9.154;2023-08-08T02:29:27;2.90;;;2.70;;
8458;SDS011;4266;48.816;9.154;2023-08-08T02:31:53;3.17;;;2.97;;
8458;SDS011;4266;48.816;9.154;2023-08-08T02:34:18;3.40;;;2.33;;
8458;SDS011;4266;48.816;9.154;2023-08-08T02:36:45;3.10;;;2.50;;
8458;SDS011;4266;48.816;9.154;2023-08-08T02:39:11;2.80;;;2.60;;
8458;SDS011;4266;48.816;9.154;2023-08-08T02:41:37;3.33;;;2.80;;
8458;SDS011;4266;48.816;9.154;2023-08-08T02:44:03;3.20;;;3.00;;
8458;SDS011;4266;48.816;9.154;2023-08-08T02:46:29;4.07;;;3.13;;
8458;SDS011;4266;48.816;9.154;2023-08-08T02:48:54;3.87;;;2.43;;
8458;SDS011;4266;48.816;9.154;2023-08-08T02:51:20;3.40;;;3.10;;
8458;SDS011;4266;48.816;9.154;2023-08-08T02:53:46;3.10;;;2.90;;
8458;SDS011;4266;48.816;9.154;2023-08-08T02:56:12;3.00;;;2.80;;
8458;SDS011;4266;48.816;9.154;2023-08-08T02:58:38;5.17;;;2.90;;
8458;SDS011;4266;48.816;9.154;2023-08-08T03:01:04;3.50;;;3.17;;
8458;SDS011;4266;48.816;9.154;2023-08-08T03:03:29;4.50;;;2.70;;
8458;SDS011;4266;48.816;9.154;2023-08-08T03:05:55;3.23;;;2.80;;
8458;SDS011;4266;48.816;9.154;2023-08-08T03:08:21;3.20;;;2.80;;
8458;SDS011;4266;48.816;9.154;2023-08-08T03:10:46;2.97;;;2.77;;
8458;SDS011;4266;48.816;9.154;2023-08-08T03:13:12;5.93;;;2.80;;
8458;SDS011;4266;48.816;9.154;2023-08-08T03:15:38;3.47;;;3.17;;
8458;SDS011;4266;48.816;9.154;2023-08-08T03:18:04;3.87;;;2.53;;
8458;SDS011;4266;48.816;9.154;2023-08-08T03:20:30;2.93;;;2.67;;
8458;SDS011;4266;48.816;9.154;2023-08-08T03:22:56;4.90;;;2.57;;
8458;SDS011;4266;48.816;9.154;2023-08-08T03:25:22;3.50;;;2.87;;
8458;SDS011;4266;48.816;9.154;2023-08-08T03:27:48;4.80;;;3.10;;
8458;SDS011;4266;48.816;9.154;2023-08-08T03:30:13;8.30;;;3.13;;
8458;SDS011;4266;48.816;9.154;2023-08-08T03:32:39;4.13;;;2.90;;
8458;SDS011;4266;48.816;9.154;2023-08-08T03:35:06;3.20;;;2.90;;
8458;SDS011;4266;48.816;9.154;2023-08-08T03:37:32;3.47;;;2.90;;
8458;SDS011;4266;48.816;9.154;2023-08-08T03:39:58;2.93;;;2.50;;
8458;SDS011;4266;48.816;9.154;2023-08-08T03:42:23;3.03;;;2.57;;
8458;SDS011;4266;48.816;9.154;2023-08-08T03:44:49;3.23;;;3.00;;
8458;SDS011;4266;48.816;9.154;2023-08-08T03:47:15;3.37;;;2.90;;
8458;SDS011;4266;48.816;9.154;2023-08-08T03:49:42;4.43;;;2.67;;
8458;SDS011;4266;48.816;9.154;2023-08-08T03:52:08;4.23;;;2.93;;
8458;SDS011;4266;48.816;9.154;2023-08-08T03:54:33;3.23;;;2.90;;
8458;SDS011;4266;48.816;9.154;2023-08-08T03:56:59;2.90;;;2.70;;
8458;SDS011;4266;48.816;9.154;2023-08-08T03:59:25;3.23;;;3.03;;
8458;SDS011;4266;48.816;9.154;2023-08-08T04:01:51;3.90;;;2.67;;
8458;SDS011;4266;48.816;9.154;2023-08-08T04:04:17;2.50;;;2.30;;
8458;SDS011;4266;48.816;9.154;2023-08-08T04:06:42;2.90;;;2.63;;
8458;SDS011;4266;48.816;9.154;2023-08-08T04:09:08;2.93;;;2.60;;
8458;SDS011;4266;48.816;9.154;2023-08-08T04:11:35;2.77;;;2.53;;
8458;SDS011;4266;48.816;9.154;2023-08-08T04:14:00;2.80;;;2.60;;
8458;SDS011;4266;48.816;9.154;2023-08-08T04:16:26;2.73;;;2.50;;
8458;SDS011;4266;48.816;9.154;2023-08-08T04:18:53;4.07;;;2.47;;
8458;SDS011;4266;48.816;9.154;2023-08-08T04:21:18;2.60;;;2.40;;
8458;SDS011;4266;48.816;9.154;2023-08-08T04:23:44;2.93;;;2.73;;
8458;SDS011;4266;48.816;9.154;2023-08-08T04:26:10;3.90;;;2.60;;
8458;SDS011;4266;48.816;9.154;2023-08-08T04:28:36;3.33;;;2.63;;
8458;SDS011;4266;48.816;9.154;2023-08-08T04:31:02;2.73;;;2.53;;
8458;SDS011;4266;48.816;9.154;2023-08-08T04:33:28;2.73;;;2.57;;
8458;SDS011;4266;48.816;9.154;2023-08-08T04:35:54;2.60;;;2.40;;
8458;SDS011;4266;48.816;9.154;2023-08-08T04:38:20;4.00;;;2.53;;
8458;SDS011;4266;48.816;9.154;2023-08-08T04:40:45;3.73;;;2.50;;
8458;SDS011;4266;48.816;9.154;2023-08-08T04:43:12;3.00;;;2.40;;
8458;SDS011;4266;48.816;9.154;2023-08-08T04:45:38;3.00;;;2.80;;
8458;SDS011;4266;48.816;9.154;2023-08-08T04:48:05;2.40;;;2.20;;
8458;SDS011;4266;48.816;9.154;2023-08-08T04:50:31;3.43;;;2.47;;
8458;SDS011;4266;48.816;9.154;2023-08-08T04:52:57;2.70;;;2.50;;
8458;SDS011;4266;48.816;9.154;2023-08-08T04:55:23;2.70;;;2.50;;
8458;SDS011;4266;48.816;9.154;2023-08-08T04:57:49;2.70;;;2.60;;
8458;SDS011;4266;48.816;9.154;2023-08-08T05:00:15;3.27;;;2.57;;
8458;SDS011;4266;48.816;9.154;2023-08-08T05:02:42;2.97;;;2.40;;
8458;SDS011;4266;48.816;9.154;2023-08-08T05:05:09;3.40;;;2.30;;
8458;SDS011;4266;48.816;9.154;2023-08-08T05:07:36;3.97;;;2.97;;
8458;SDS011;4266;48.816;9.154;2023-08-08T05:10:01;2.77;;;2.57;;
8458;SDS011;4266;48.816;9.154;2023-08-08T05:12:27;3.03;;;2.73;;
8458;SDS011;4266;48.816;9.154;2023-08-08T05:14:53;2.70;;;2.50;;
8458;SDS011;4266;48.816;9.154;2023-08-08T05:17:20;3.87;;;2.13;;
8458;SDS011;4266;48.816;9.154;2023-08-08T05:19:45;3.60;;;2.50;;
8458;SDS011;4266;48.816;9.154;2023-08-08T05:22:11;3.00;;;2.70;;
8458;SDS011;4266;48.816;9.154;2023-08-08T05:24:37;5.77;;;2.87;;
8458;SDS011;4266;48.816;9.154;2023-08-08T05:27:04;4.30;;;2.60;;
8458;SDS011;4266;48.816;9.154;2023-08-08T05:29:30;5.83;;;2.90;;
8458;SDS011;4266;48.816;9.154;2023-08-08T05:31:56;2.70;;;2.40;;
8458;SDS011;4266;48.816;9.154;2023-08-08T05:34:23;3.27;;;2.60;;
8458;SDS011;4266;48.816;9.154;2023-08-08T05:36:49;2.40;;;2.30;;
8458;SDS011;4266;48.816;9.154;2023-08-08T05:39:15;2.90;;;2.50;;
8458;SDS011;4266;48.816;9.154;2023-08-08T05:41:41;2.90;;;2.40;;
8458;SDS011;4266;48.816;9.154;2023-08-08T05:44:07;5.73;;;2.67;;
8458;SDS011;4266;48.816;9.154;2023-08-08T05:46:32;2.50;;;2.30;;
8458;SDS011;4266;48.816;9.154;2023-08-08T05:48:58;4.63;;;2.40;;
8458;SDS011;4266;48.816;9.154;2023-08-08T05:51:24;2.50;;;2.30;;
8458;SDS011;4266;48.816;9.154;2023-08-08T05:53:51;2.50;;;2.30;;
8458;SDS011;4266;48.816;9.154;2023-08-08T05:56:16;3.47;;;2.40;;
8458;SDS011;4266;48.816;9.154;2023-08-08T05:58:42;4.32;;;2.20;;
8458;SDS011;4266;48.816;9.154;2023-08-08T06:01:08;2.47;;;2.28;;
8458;SDS011;4266;48.816;9.154;2023-08-08T06:03:34;2.83;;;1.95;;
8458;SDS011;4266;48.816;9.154;2023-08-08T06:06:00;2.30;;;2.10;;
8458;SDS011;4266;48.816;9.154;2023-08-08T06:08:26;3.40;;;2.30;;
8458;SDS011;4266;48.816;9.154;2023-08-08T06:10:52;4.22;;;2.58;;
8458;SDS011;4266;48.816;9.154;2023-08-08T06:13:17;2.83;;;2.30;;
8458;SDS011;4266;48.816;9.154;2023-08-08T06:15:43;5.40;;;2.40;;
8458;SDS011;4266;48.816;9.154;2023-08-08T06:18:09;2.83;;;2.20;;
8458;SDS011;4266;48.816;9.154;2023-08-08T06:20:34;2.92;;;2.10;;
8458;SDS011;4266;48.816;9.154;2023-08-08T06:23:00;1.77;;;1.67;;
8458;SDS011;4266;48.816;9.154;2023-08-08T06:25:26;4.70;;;2.08;;
8458;SDS011;4266;48.816;9.154;2023-08-08T06:27:52;5.03;;;2.08;;
8458;SDS011;4266;48.816;9.154;2023-08-08T06:30:17;2.50;;;2.03;;
8458;SDS011;4266;48.816;9.154;2023-08-08T06:32:43;4.75;;;2.30;;
8458;SDS011;4266;48.816;9.154;2023-08-08T06:35:09;3.08;;;2.12;;
8458;SDS011;4266;48.816;9.154;2023-08-08T06:37:35;2.30;;;2.10;;
8458;SDS011;4266;48.816;9.154;2023-08-08T06:40:01;2.78;;;2.25;;
8458;SDS011;4266;48.816;9.154;2023-08-08T06:42:27;3.12;;;2.05;;
8458;SDS011;4266;48.816;9.154;2023-08-08T06:44:53;2.75;;;1.92;;
8458;SDS011;4266;48.816;9.154;2023-08-08T06:47:19;4.85;;;1.80;;
8458;SDS011;4266;48.816;9.154;2023-08-08T06:49:45;6.47;;;1.90;;
8458;SDS011;4266;48.816;9.154;2023-08-08T06:52:11;2.30;;;2.10;;
8458;SDS011;4266;48.816;9.154;2023-08-08T06:54:36;2.30;;;2.10;;
8458;SDS011;4266;48.816;9.154;2023-08-08T06:57:02;2.33;;;2.12;;
8458;SDS011;4266;48.816;9.154;2023-08-08T06:59:29;2.08;;;1.87;;
8458;SDS011;4266;48.816;9.154;2023-08-08T07:01:55;3.05;;;1.85;;
8458;SDS011;4266;48.816;9.154;2023-08-08T07:04:21;2.83;;;2.55;;
8458;SDS011;4266;48.816;9.154;2023-08-08T07:06:46;2.20;;;2.00;;
8458;SDS011;4266;48.816;9.154;2023-08-08T07:09:12;3.95;;;1.92;;
8458;SDS011;4266;48.816;9.154;2023-08-08T07:11:38;6.28;;;2.37;;
8458;SDS011;4266;48.816;9.154;2023-08-08T07:14:04;2.50;;;2.30;;
8458;SDS011;4266;48.816;9.154;2023-08-08T07:16:29;3.20;;;2.20;;
8458;SDS011;4266;48.816;9.154;2023-08-08T07:18:55;2.17;;;2.00;;
8458;SDS011;4266;48.816;9.154;2023-08-08T07:21:21;2.10;;;1.90;;
8458;SDS011;4266;48.816;9.154;2023-08-08T07:23:46;2.37;;;1.77;;
8458;SDS011;4266;48.816;9.154;2023-08-08T07:26:13;3.20;;;2.35;;
8458;SDS011;4266;48.816;9.154;2023-08-08T07:28:39;3.40;;;2.20;;
8458;SDS011;4266;48.816;9.154;2023-08-08T07:31:05;2.75;;;2.10;;
8458;SDS011;4266;48.816;9.154;2023-08-08T07:33:31;2.00;;;1.90;;
8458;SDS011;4266;48.816;9.154;2023-08-08T07:35:56;1.92;;;1.83;;
8458;SDS011;4266;48.816;9.154;2023-08-08T07:38:22;3.58;;;2.10;;
8458;SDS011;4266;48.816;9.154;2023-08-08T07:40:48;2.28;;;2.08;;
8458;SDS011;4266;48.816;9.154;2023-08-08T07:43:13;2.70;;;2.30;;
8458;SDS011;4266;48.816;9.154;2023-08-08T07:45:39;2.03;;;1.92;;
8458;SDS011;4266;48.816;9.154;2023-08-08T07:48:05;2.72;;;1.75;;
8458;SDS011;4266;48.816;9.154;2023-08-08T07:50:32;2.22;;;2.03;;
8458;SDS011;4266;48.816;9.154;2023-08-08T07:52:57;7.20;;;3.05;;
8458;SDS011;4266;48.816;9.154;2023-08-08T07:55:23;2.15;;;1.80;;
8458;SDS011;4266;48.816;9.154;2023-08-08T07:57:49;2.47;;;2.03;;
8458;SDS011;4266;48.816;9.154;2023-08-08T08:00:16;2.47;;;1.98;;
8458;SDS011;4266;48.816;9.154;2023-08-08T08:02:42;2.12;;;2.03;;
8458;SDS011;4266;48.816;9.154;2023-08-08T08:05:08;4.20;;;2.30;;
8458;SDS011;4266;48.816;9.154;2023-08-08T08:07:34;3.00;;;2.00;;
8458;SDS011;4266;48.816;9.154;2023-08-08T08:09:59;4.72;;;2.17;;
8458;SDS011;4266;48.816;9.154;2023-08-08T08:12:25;2.50;;;2.20;;
8458;SDS011;4266;48.816;9.154;2023-08-08T08:14:50;2.95;;;2.50;;
8458;SDS011;4266;48.816;9.154;2023-08-08T08:17:16;2.35;;;2.15;;
8458;SDS011;4266;48.816;9.154;2023-08-08T08:19:42;3.03;;;2.20;;
8458;SDS011;4266;48.816;9.154;2023-08-08T08:22:07;2.50;;;2.30;;
8458;SDS011;4266;48.816;9.154;2023-08-08T08:24:33;2.85;;;2.00;;
8458;SDS011;4266;48.816;9.154;2023-08-08T08:26:59;2.40;;;2.20;;
8458;SDS011;4266;48.816;9.154;2023-08-08T08:29:25;2.17;;;1.98;;
8458;SDS011;4266;48.816;9.154;2023-08-08T08:31:51;2.55;;;2.35;;
8458;SDS011;4266;48.816;9.154;2023-08-08T08:34:16;2.37;;;2.17;;
8458;SDS011;4266;48.816;9.154;2023-08-08T08:36:42;3.67;;;2.20;;
8458;SDS011;4266;48.816;9.154;2023-08-08T08:39:09;2.10;;;1.83;;
8458;SDS011;4266;48.816;9.154;2023-08-08T08:41:35;3.37;;;2.12;;
8458;SDS011;4266;48.816;9.154;2023-08-08T08:44:00;2.08;;;1.95;;
8458;SDS011;4266;48.816;9.154;2023-08-08T08:46:26;2.17;;;2.00;;
8458;SDS011;4266;48.816;9.154;2023-08-08T08:48:51;2.92;;;2.03;;
8458;SDS011;4266;48.816;9.154;2023-08-08T08:51:18;2.08;;;1.87;;
8458;SDS011;4266;48.816;9.154;2023-08-08T08:56:17;2.70;;;2.20;;
8458;SDS011;4266;48.816;9.154;2023-08-08T08:58:42;2.25;;;2.05;;
8458;SDS011;4266;48.816;9.154;2023-08-08T09:01:09;2.10;;;2.00;;
8458;SDS011;4266;48.816;9.154;2023-08-08T09:03:35;6.00;;;2.10;;
8458;SDS011;4266;48.816;9.154;2023-08-08T09:06:00;2.30;;;2.10;;
8458;SDS011;4266;48.816;9.154;2023-08-08T09:08:26;2.33;;;2.10;;
8458;SDS011;4266;48.816;9.154;2023-08-08T09:10:52;2.87;;;1.90;;
8458;SDS011;4266;48.816;9.154;2023-08-08T09:13:18;2.40;;;1.90;;
8458;SDS011;4266;48.816;9.154;2023-08-08T09:15:44;2.85;;;2.10;;
8458;SDS011;4266;48.816;9.154;2023-08-08T09:18:09;3.92;;;2.17;;
8458;SDS011;4266;48.816;9.154;2023-08-08T09:20:35;2.22;;;1.90;;
8458;SDS011;4266;48.816;9.154;2023-08-08T09:23:01;2.42;;;2.03;;
8458;SDS011;4266;48.816;9.154;2023-08-08T09:25:27;3.00;;;1.90;;
8458;SDS011;4266;48.816;9.154;2023-08-08T09:27:53;2.25;;;2.08;;
8458;SDS011;4266;48.816;9.154;2023-08-08T09:30:19;2.22;;;1.90;;
8458;SDS011;4266;48.816;9.154;2023-08-08T09:32:45;3.08;;;2.10;;
8458;SDS011;4266;48.816;9.154;2023-08-08T09:35:11;2.25;;;1.98;;
8458;SDS011;4266;48.816;9.154;2023-08-08T09:37:37;2.33;;;2.00;;
8458;SDS011;4266;48.816;9.154;2023-08-08T09:40:03;3.33;;;2.00;;
8458;SDS011;4266;48.816;9.154;2023-08-08T09:42:31;2.00;;;1.90;;
8458;SDS011;4266;48.816;9.154;2023-08-08T09:44:57;3.55;;;2.10;;
8458;SDS011;4266;48.816;9.154;2023-08-08T09:47:22;2.78;;;2.10;;
8458;SDS011;4266;48.816;9.154;2023-08-08T09:49:49;1.95;;;1.85;;
8458;SDS011;4266;48.816;9.154;2023-08-08T09:52:15;2.62;;;2.12;;
8458;SDS011;4266;48.816;9.154;2023-08-08T09:54:40;2.12;;;1.92;;
8458;SDS011;4266;48.816;9.154;2023-08-08T09:57:06;3.92;;;3.53;;
8458;SDS011;4266;48.816;9.154;2023-08-08T09:59:32;2.20;;;2.10;;
8458;SDS011;4266;48.816;9.154;2023-08-08T10:01:59;2.30;;;2.10;;
8458;SDS011;4266;48.816;9.154;2023-08-08T10:04:24;4.60;;;2.28;;
8458;SDS011;4266;48.816;9.154;2023-08-08T10:06:51;2.40;;;1.95;;
8458;SDS011;4266;48.816;9.154;2023-08-08T10:09:16;2.50;;;2.30;;
8458;SDS011;4266;48.816;9.154;2023-08-08T10:11:42;2.83;;;1.98;;
8458;SDS011;4266;48.816;9.154;2023-08-08T10:14:09;2.45;;;2.25;;
8458;SDS011;4266;48.816;9.154;2023-08-08T10:16:33;2.30;;;2.10;;
8458;SDS011;4266;48.816;9.154;2023-08-08T10:19:01;1.98;;;1.77;;
8458;SDS011;4266;48.816;9.154;2023-08-08T10:21:25;3.58;;;2.00;;
8458;SDS011;4266;48.816;9.154;2023-08-08T10:26:26;2.05;;;1.85;;
8458;SDS011;4266;48.816;9.154;2023-08-08T10:28:52;1.92;;;1.80;;
8458;SDS011;4266;48.816;9.154;2023-08-08T10:31:18;1.70;;;1.60;;
8458;SDS011;4266;48.816;9.154;2023-08-08T10:33:44;2.70;;;2.10;;
8458;SDS011;4266;48.816;9.154;2023-08-08T10:36:09;2.45;;;2.00;;
8458;SDS011;4266;48.816;9.154;2023-08-08T10:38:46;2.55;;;1.92;;
8458;SDS011;4266;48.816;9.154;2023-08-08T10:41:14;5.25;;;1.80;;
8458;SDS011;4266;48.816;9.154;2023-08-08T10:43:46;3.78;;;2.12;;
8458;SDS011;4266;48.816;9.154;2023-08-08T10:46:05;2.30;;;1.87;;
8458;SDS011;4266;48.816;9.154;2023-08-08T10:48:31;3.03;;;1.80;;
8458;SDS011;4266;48.816;9.154;2023-08-08T10:50:58;2.05;;;1.90;;
8458;SDS011;4266;48.816;9.154;2023-08-08T10:53:25;2.70;;;1.85;;
8458;SDS011;4266;48.816;9.154;2023-08-08T10:55:56;3.17;;;2.08;;
8458;SDS011;4266;48.816;9.154;2023-08-08T10:58:16;2.62;;;1.75;;
8458;SDS011;4266;48.816;9.154;2023-08-08T11:00:42;2.80;;;2.10;;
8458;SDS011;4266;48.816;9.154;2023-08-08T11:03:08;3.08;;;2.10;;
8458;SDS011;4266;48.816;9.154;2023-08-08T11:05:34;3.33;;;1.90;;
8458;SDS011;4266;48.816;9.154;2023-08-08T11:08:00;3.85;;;2.00;;
8458;SDS011;4266;48.816;9.154;2023-08-08T11:10:25;4.60;;;1.90;;
8458;SDS011;4266;48.816;9.154;2023-08-08T11:12:57;5.07;;;2.10;;
8458;SDS011;4266;48.816;9.154;2023-08-08T11:15:22;3.92;;;2.00;;
8458;SDS011;4266;48.816;9.154;2023-08-08T11:17:48;2.10;;;1.90;;
8458;SDS011;4266;48.816;9.154;2023-08-08T11:20:13;2.33;;;2.10;;
8458;SDS011;4266;48.816;9.154;2023-08-08T11:22:39;2.87;;;2.20;;
8458;SDS011;4266;48.816;9.154;2023-08-08T11:25:05;2.28;;;2.08;;
8458;SDS011;4266;48.816;9.154;2023-08-08T11:27:31;2.25;;;1.92;;
8458;SDS011;4266;48.816;9.154;2023-08-08T11:29:57;3.40;;;2.08;;
8458;SDS011;4266;48.816;9.154;2023-08-08T11:32:23;2.12;;;1.92;;
8458;SDS011;4266;48.816;9.154;2023-08-08T11:34:48;2.58;;;2.05;;
8458;SDS011;4266;48.816;9.154;2023-08-08T11:37:15;2.25;;;2.03;;
8458;SDS011;4266;48.816;9.154;2023-08-08T11:39:41;2.08;;;1.98;;
8458;SDS011;4266;48.816;9.154;2023-08-08T11:42:07;2.90;;;1.90;;
8458;SDS011;4266;48.816;9.154;2023-08-08T11:44:33;2.03;;;1.90;;
8458;SDS011;4266;48.816;9.154;2023-08-08T11:47:00;2.00;;;1.80;;
8458;SDS011;4266;48.816;9.154;2023-08-08T11:49:25;2.95;;;1.85;;
8458;SDS011;4266;48.816;9.154;2023-08-08T11:51:53;3.17;;;2.00;;
8458;SDS011;4266;48.816;9.154;2023-08-08T11:54:18;2.28;;;2.08;;
8458;SDS011;4266;48.816;9.154;2023-08-08T11:56:43;2.05;;;1.87;;
8458;SDS011;4266;48.816;9.154;2023-08-08T11:59:09;5.47;;;2.30;;
8458;SDS011;4266;48.816;9.154;2023-08-08T12:01:35;4.35;;;1.90;;
8458;SDS011;4266;48.816;9.154;2023-08-08T12:04:05;2.62;;;2.20;;
8458;SDS011;4266;48.816;9.154;2023-08-08T12:06:30;3.25;;;2.10;;
8458;SDS011;4266;48.816;9.154;2023-08-08T12:08:56;2.47;;;2.28;;
8458;SDS011;4266;48.816;9.154;2023-08-08T12:11:21;2.20;;;1.73;;
8458;SDS011;4266;48.816;9.154;2023-08-08T12:13:48;2.15;;;1.95;;
8458;SDS011;4266;48.816;9.154;2023-08-08T12:16:14;2.08;;;1.87;;
8458;SDS011;4266;48.816;9.154;2023-08-08T12:18:40;4.28;;;2.10;;
8458;SDS011;4266;48.816;9.154;2023-08-08T12:21:06;1.95;;;1.85;;
8458;SDS011;4266;48.816;9.154;2023-08-08T12:23:32;2.67;;;2.10;;
8458;SDS011;4266;48.816;9.154;2023-08-08T12:25:58;1.92;;;1.83;;
8458;SDS011;4266;48.816;9.154;2023-08-08T12:28:24;1.90;;;1.80;;
8458;SDS011;4266;48.816;9.154;2023-08-08T12:30:50;2.05;;;1.85;;
8458;SDS011;4266;48.816;9.154;2023-08-08T12:33:16;2.22;;;1.85;;
8458;SDS011;4266;48.816;9.154;2023-08-08T12:35:41;1.85;;;1.75;;
8458;SDS011;4266;48.816;9.154;2023-08-08T12:38:08;3.15;;;2.30;;
8458;SDS011;4266;48.816;9.154;2023-08-08T12:40:34;2.00;;;1.90;;
8458;SDS011;4266;48.816;9.154;2023-08-08T12:43:01;3.00;;;1.92;;
8458;SDS011;4266;48.816;9.154;2023-08-08T12:45:26;2.15;;;1.85;;
8458;SDS011;4266;48.816;9.154;2023-08-08T12:47:52;2.10;;;2.00;;
8458;SDS011;4266;48.816;9.154;2023-08-08T12:50:18;3.12;;;1.85;;
8458;SDS011;4266;48.816;9.154;2023-08-08T12:52:44;2.20;;;1.83;;
8458;SDS011;4266;48.816;9.154;2023-08-08T12:55:09;2.28;;;1.92;;
8458;SDS011;4266;48.816;9.154;2023-08-08T12:57:36;2.15;;;2.00;;
8458;SDS011;4266;48.816;9.154;2023-08-08T13:00:03;3.65;;;2.08;;
8458;SDS011;4266;48.816;9.154;2023-08-08T13:02:29;1.98;;;1.87;;
8458;SDS011;4266;48.816;9.154;2023-08-08T13:04:55;2.08;;;1.83;;
8458;SDS011;4266;48.816;9.154;2023-08-08T13:07:21;2.22;;;1.92;;
8458;SDS011;4266;48.816;9.154;2023-08-08T13:09:46;2.15;;;2.05;;
8458;SDS011;4266;48.816;9.154;2023-08-08T13:12:12;2.60;;;2.05;;
8458;SDS011;4266;48.816;9.154;2023-08-08T13:14:38;2.25;;;2.08;;
8458;SDS011;4266;48.816;9.154;2023-08-08T13:17:04;2.20;;;1.75;;
8458;SDS011;4266;48.816;9.154;2023-08-08T13:19:30;2.78;;;2.00;;
8458;SDS011;4266;48.816;9.154;2023-08-08T13:21:55;2.08;;;1.98;;
8458;SDS011;4266;48.816;9.154;2023-08-08T13:24:22;6.05;;;2.15;;
8458;SDS011;4266;48.816;9.154;2023-08-08T13:26:49;3.40;;;2.35;;
8458;SDS011;4266;48.816;9.154;2023-08-08T13:29:14;2.83;;;2.12;;
8458;SDS011;4266;48.816;9.154;2023-08-08T13:31:40;2.37;;;2.10;;
8458;SDS011;4266;48.816;9.154;2023-08-08T13:34:05;2.78;;;2.25;;
8458;SDS011;4266;48.816;9.154;2023-08-08T13:36:31;2.47;;;2.12;;
8458;SDS011;4266;48.816;9.154;2023-08-08T13:38:57;4.12;;;2.35;;
8458;SDS011;4266;48.816;9.154;2023-08-08T13:41:23;2.40;;;2.20;;
8458;SDS011;4266;48.816;9.154;2023-08-08T13:43:49;4.30;;;2.00;;
8458;SDS011;4266;48.816;9.154;2023-08-08T13:46:14;4.43;;;2.12;;
8458;SDS011;4266;48.816;9.154;2023-08-08T13:48:41;3.60;;;2.10;;
8458;SDS011;4266;48.816;9.154;2023-08-08T13:51:07;2.53;;;1.98;;
8458;SDS011;4266;48.816;9.154;2023-08-08T13:53:33;5.07;;;2.40;;
8458;SDS011;4266;48.816;9.154;2023-08-08T13:55:59;2.15;;;2.00;;
8458;SDS011;4266;48.816;9.154;2023-08-08T13:58:25;2.62;;;1.80;;
8458;SDS011;4266;48.816;9.154;2023-08-08T14:00:51;2.03;;;1.87;;
8458;SDS011;4266;48.816;9.154;2023-08-08T14:03:16;3.67;;;2.10;;
8458;SDS011;4266;48.816;9.154;2023-08-08T14:05:43;2.87;;;1.92;;
8458;SDS011;4266;48.816;9.154;2023-08-08T14:08:08;2.10;;;2.00;;
8458;SDS011;4266;48.816;9.154;2023-08-08T14:10:35;2.33;;;2.12;;
8458;SDS011;4266;48.816;9.154;2023-08-08T14:13:00;1.75;;;1.65;;
8458;SDS011;4266;48.816;9.154;2023-08-08T14:15:26;2.17;;;2.08;;
8458;SDS011;4266;48.816;9.154;2023-08-08T14:17:52;2.78;;;2.08;;
8458;SDS011;4266;48.816;9.154;2023-08-08T14:20:17;1.85;;;1.75;;
8458;SDS011;4266;48.816;9.154;2023-08-08T14:22:45;2.28;;;2.10;;
8458;SDS011;4266;48.816;9.154;2023-08-08T14:25:10;3.25;;;2.00;;
8458;SDS011;4266;48.816;9.154;2023-08-08T14:27:35;2.37;;;2.17;;
8458;SDS011;4266;48.816;9.154;2023-08-08T14:30:02;3.85;;;2.10;;
8458;SDS011;4266;48.816;9.154;2023-08-08T14:32:28;3.25;;;2.03;;
8458;SDS011;4266;48.816;9.154;2023-08-08T14:34:54;2.08;;;1.98;;
8458;SDS011;4266;48.816;9.154;2023-08-08T14:37:20;2.20;;;2.10;;
8458;SDS011;4266;48.816;9.154;2023-08-08T14:39:45;2.40;;;2.20;;
8458;SDS011;4266;48.816;9.154;2023-08-08T14:42:11;2.47;;;2.20;;
8458;SDS011;4266;48.816;9.154;2023-08-08T14:44:37;3.67;;;2.08;;
8458;SDS011;4266;48.816;9.154;2023-08-08T14:47:04;1.87;;;1.77;;
8458;SDS011;4266;48.816;9.154;2023-08-08T14:49:30;3.53;;;2.70;;
8458;SDS011;4266;48.816;9.154;2023-08-08T14:51:57;2.92;;;2.40;;
8458;SDS011;4266;48.816;9.154;2023-08-08T14:54:23;2.67;;;2.20;;
8458;SDS011;4266;48.816;9.154;2023-08-08T14:56:50;2.60;;;2.37;;
8458;SDS011;4266;48.816;9.154;2023-08-08T14:59:15;3.00;;;1.80;;
8458;SDS011;4266;48.816;9.154;2023-08-08T15:01:41;3.35;;;2.50;;
8458;SDS011;4266;48.816;9.154;2023-08-08T15:04:07;3.40;;;2.40;;
8458;SDS011;4266;48.816;9.154;2023-08-08T15:06:33;2.47;;;2.17;;
8458;SDS011;4266;48.816;9.154;2023-08-08T15:08:59;2.10;;;2.00;;
8458;SDS011;4266;48.816;9.154;2023-08-08T15:11:25;2.28;;;2.08;;